Latest Weather Observations for Broome

IDW60801

Issued at 9:33 pm WST Saturday 27 August 2016 (issued every 30 minutes, with the page automatically refreshed every 10 minutes)

About weather observations | Map of weather stations | Latest weather observations for WA | Other Formats
Station Details ID: 003003 Name: BROOME AIRPORT Lat: -17.95 Lon: 122.24 Height: 7.42 m
Data from the previous 72 hours. | See also: Recent months at Broome
Date/Time
WST
Temp
°C
App
Temp
°C
Dew
Point
°C
Rel
Hum
%
Delta-T
°C
Wind Press
QNH
hPa
Press
MSL
hPa
Rain since
9am
mm
Dir  Spd
km/h
Gust
km/h
Spd
kts
Gust
kts
27/09:30pm 21.9 24.8 20.7 93 0.8 N 6 9 3 5 1014.0 - 0.0
27/09:00pm 23.4 28.1 22.0 92 0.9 CALM 0 0 0 0 1014.2 1014.1 0.0
27/08:30pm 24.0 28.8 22.2 90 1.2 CALM 0 0 0 0 1014.2 - 0.0
27/08:00pm 24.4 29.4 22.5 89 1.3 CALM 0 0 0 0 1014.2 - 0.0
27/07:30pm 24.5 29.4 22.3 87 1.5 CALM 0 0 0 0 1013.9 - 0.0
27/07:00pm 24.4 29.2 22.2 87 1.5 CALM 0 6 0 3 1013.2 - 0.0
27/06:30pm 24.9 28.5 22.4 86 1.7 NW 7 9 4 5 1012.9 - 0.0
27/06:00pm 25.3 28.4 22.2 83 2.1 NW 9 11 5 6 1012.8 1012.7 0.0
27/05:30pm 25.7 28.0 22.1 80 2.4 NW 13 17 7 9 1012.7 - 0.0
27/05:00pm 26.1 28.1 22.2 79 2.6 WNW 15 20 8 11 1012.7 - 0.0
27/04:30pm 26.6 28.3 22.3 77 2.9 NW 17 24 9 13 1012.5 - 0.0
27/04:00pm 26.7 28.0 22.4 77 2.9 WNW 19 28 10 15 1012.3 - 0.0
27/03:30pm 26.8 27.8 22.2 76 3.1 WNW 20 30 11 16 1012.1 - 0.0
27/03:00pm 27.1 28.3 22.5 76 3.1 WNW 20 30 11 16 1012.0 1011.9 0.0
27/02:30pm 27.5 27.9 21.8 71 3.8 WNW 22 30 12 16 1012.1 - 0.0
27/02:00pm 27.6 28.2 21.1 67 4.3 NW 19 26 10 14 1012.3 - 0.0
27/01:30pm 28.4 28.4 21.0 64 4.9 WNW 22 32 12 17 1012.7 - 0.0
27/01:00pm 27.5 27.4 21.5 70 4.0 NW 24 33 13 18 1013.0 - 0.0
27/12:30pm 28.3 27.4 21.4 66 4.6 NW 28 35 15 19 1013.4 - 0.0
27/12:00pm 27.5 27.5 21.7 70 3.9 NW 24 33 13 18 1013.8 1013.7 0.0
27/11:30am 27.4 27.9 21.1 68 4.2 NW 20 30 11 16 1014.5 - 0.0
27/11:00am 27.6 26.7 19.9 63 5.0 WNW 24 32 13 17 1014.7 - 0.0
27/10:30am 27.8 28.4 21.0 66 4.5 NW 19 24 10 13 1014.9 - 0.0
27/10:00am 28.6 27.7 16.9 49 7.3 NW 17 22 9 12 1015.2 - 0.0
27/09:30am 27.8 27.8 17.3 52 6.6 NNW 13 20 7 11 1015.4 - 0.0
27/09:00am 27.0 27.9 20.1 66 4.5 NNW 15 20 8 11 1015.2 1015.1 0.0
27/08:30am 25.7 26.6 20.8 74 3.2 NNW 17 24 9 13 1015.1 - 0.0
27/08:00am 25.3 27.1 20.4 74 3.2 NNW 11 15 6 8 1014.7 - 0.0
27/07:30am 23.7 24.8 18.1 71 3.5 N 9 15 5 8 1014.6 - 0.0
27/07:00am 21.5 23.7 17.4 77 2.5 NNW 2 7 1 4 1014.1 - 0.0
27/06:30am 18.1 19.8 16.3 89 1.1 NNW 2 6 1 3 1013.8 - 0.0
27/06:00am 15.4 15.9 14.0 91 0.8 NNE 4 7 2 4 1013.3 1013.2 0.0
27/05:30am 15.2 16.2 13.2 88 1.1 CALM 0 0 0 0 1012.9 - 0.0
27/05:00am 15.6 16.7 13.6 88 1.1 CALM 0 0 0 0 1012.7 - 0.0
27/04:30am 15.9 17.2 14.0 88 1.1 CALM 0 0 0 0 1012.5 - 0.0
27/04:00am 17.0 18.6 14.9 87 1.2 CALM 0 0 0 0 1012.4 - 0.0
27/03:30am 16.9 18.5 15.0 88 1.1 CALM 0 0 0 0 1012.5 - 0.0
27/03:00am 17.4 19.0 14.8 85 1.5 CALM 0 0 0 0 1012.6 1012.5 0.0
27/02:30am 17.0 18.7 15.1 88 1.1 CALM 0 0 0 0 1012.8 - 0.0
27/02:00am 16.7 18.3 15.0 90 1.0 CALM 0 0 0 0 1013.0 - 0.0
27/01:30am 17.4 19.1 15.3 87 1.2 CALM 0 0 0 0 1013.3 - 0.0
27/01:00am 17.0 18.5 14.6 86 1.4 CALM 0 0 0 0 1013.5 - 0.0
27/12:30am 18.6 20.3 15.2 80 2.0 CALM 0 0 0 0 1013.5 - 0.0
27/12:00am 18.0 19.7 15.1 83 1.7 CALM 0 0 0 0 1013.7 1013.6 0.0
 
Date/Time
WST
Temp
°C
App
Temp
°C
Dew
Point
°C
Rel
Hum
%
Delta-T
°C
Wind Press
QNH
hPa
Press
MSL
hPa
Rain since
9am
mm
Dir  Spd
km/h
Gust
km/h
Spd
kts
Gust
kts
26/11:30pm 18.3 18.7 15.2 82 1.8 N 7 7 4 4 1013.8 - 0.0
26/11:00pm 20.7 21.8 17.1 80 2.2 N 7 9 4 5 1014.1 - 0.0
26/10:30pm 21.1 23.9 18.0 82 1.9 CALM 0 0 0 0 1014.2 - 0.0
26/10:00pm 22.2 23.5 18.4 79 2.4 NW 9 13 5 7 1014.1 - 0.0
26/09:30pm 22.8 24.1 19.3 80 2.2 NNW 11 13 6 7 1014.0 - 0.0
26/09:00pm 23.1 24.6 19.8 82 2.1 NNW 11 15 6 8 1014.1 1014.0 0.0
26/08:30pm 23.5 25.1 19.9 80 2.3 N 11 15 6 8 1014.1 - 0.0
26/08:00pm 24.0 24.8 19.8 77 2.7 NNW 15 24 8 13 1013.8 - 0.0
26/07:30pm 24.4 24.5 19.2 73 3.3 NNW 17 22 9 12 1013.5 - 0.0
26/07:00pm 24.6 24.4 18.6 69 3.8 NNW 17 22 9 12 1013.0 - 0.0
26/06:30pm 25.2 23.4 15.4 54 5.9 NNW 19 24 10 13 1012.6 - 0.0
26/06:00pm 25.7 23.1 13.2 46 7.3 NNW 19 28 10 15 1012.1 1012.0 0.0
26/05:30pm 26.6 23.3 11.5 39 8.6 NNW 20 30 11 16 1011.9 - 0.0
26/05:00pm 27.7 23.3 10.3 33 9.8 NNW 24 33 13 18 1011.6 - 0.0
26/04:30pm 28.6 24.0 9.6 30 10.6 NNW 24 35 13 19 1011.1 - 0.0
26/04:00pm 30.0 24.8 7.3 24 12.3 NNW 24 35 13 19 1010.5 - 0.0
26/03:30pm 32.3 28.3 0.8 13 15.5 SSE 11 17 6 9 1010.3 - 0.0
26/03:00pm 33.9 29.6 -5.1 8 17.6 E 9 20 5 11 1010.4 1010.3 0.0
26/02:30pm 33.0 27.9 -5.2 8 17.1 E 13 20 7 11 1010.5 - 0.0
26/02:00pm 33.2 27.7 -5.1 8 17.2 E 15 20 8 11 1010.6 - 0.0
26/01:30pm 32.5 27.2 -3.5 9 16.5 ESE 15 20 8 11 1011.1 - 0.0
26/01:00pm 32.5 26.1 -4.6 9 16.7 ESE 20 28 11 15 1011.7 - 0.0
26/12:30pm 32.1 25.1 -6.7 8 16.8 E 22 37 12 20 1012.3 - 0.0
26/12:00pm 31.5 24.4 -7.8 7 16.6 E 22 33 12 18 1013.0 1012.9 0.0
26/11:30am 30.6 22.7 -9.3 7 16.3 E 26 39 14 21 1013.5 - 0.0
26/11:00am 30.7 23.4 -6.1 9 15.9 E 24 37 13 20 1014.0 - 0.0
26/10:30am 29.1 20.9 -8.1 8 15.3 E 28 37 15 20 1014.3 - 0.0
26/10:00am 28.5 20.3 -7.7 9 14.9 E 28 41 15 22 1014.5 - 0.0
26/09:30am 27.2 19.4 -7.1 10 14.1 E 26 35 14 19 1014.8 - 0.0
26/09:00am 25.3 17.1 -7.9 10 13.2 E 28 43 15 23 1015.1 1015.0 0.0
26/08:30am 23.5 14.8 -5.2 14 11.8 E 32 46 17 25 1015.1 - 0.0
26/08:19am 22.9 15.1 -4.2 16 11.3 E 28 46 15 25 1015.1 - 0.0
26/08:00am 22.0 14.2 -4.0 17 10.8 E 28 39 15 21 1015.1 - 0.0
26/07:30am 20.8 15.2 -3.2 19 10.0 E 17 26 9 14 1015.2 - 0.0
26/07:00am 18.8 13.6 -2.8 23 8.9 E 15 22 8 12 1015.1 - 0.0
26/06:30am 16.7 12.3 -2.5 27 7.8 E 11 15 6 8 1014.8 - 0.0
26/06:00am 15.8 11.8 -2.2 29 7.3 ESE 9 13 5 7 1014.4 1014.3 0.0
26/05:30am 14.3 9.8 -0.4 36 6.1 E 13 15 7 8 1014.1 - 0.0
26/05:00am 14.1 9.9 -0.7 36 6.1 E 11 13 6 7 1014.0 - 0.0
26/04:30am 13.3 9.3 2.9 49 4.6 E 13 15 7 8 1013.7 - 0.0
26/04:00am 14.8 11.2 0.8 38 6.0 ESE 9 11 5 6 1013.5 - 0.0
26/03:30am 15.2 11.1 -0.2 35 6.5 ESE 11 13 6 7 1013.5 - 0.0
26/03:00am 15.9 11.1 -2.4 28 7.4 ESE 13 17 7 9 1013.3 1013.2 0.0
26/02:30am 14.7 11.5 1.0 39 5.9 ENE 7 9 4 5 1013.3 - 0.0
26/02:00am 15.7 11.6 -0.4 33 6.8 ENE 11 11 6 6 1013.1 - 0.0
26/01:45am 16.5 12.7 1.9 37 6.5 ENE 11 17 6 9 1013.1 - 0.0
26/01:30am 21.5 15.8 0.8 25 9.4 SE 20 28 11 15 1012.9 - 0.0
26/01:00am 21.3 17.4 5.4 35 7.9 SE 15 20 8 11 1013.1 - 0.0
26/12:30am 22.2 16.3 1.8 26 9.5 SE 22 43 12 23 1013.2 - 0.0
26/12:00am 18.4 15.3 3.7 37 6.9 E 9 17 5 9 1013.7 1013.6 0.0
 
Date/Time
WST
Temp
°C
App
Temp
°C
Dew
Point
°C
Rel
Hum
%
Delta-T
°C
Wind Press
QNH
hPa
Press
MSL
hPa
Rain since
9am
mm
Dir  Spd
km/h
Gust
km/h
Spd
kts
Gust
kts
25/11:30pm 20.2 17.2 6.2 40 7.0 ESE 11 15 6 8 1013.9 - 0.0
25/11:00pm 22.0 18.0 2.8 28 9.1 SE 13 20 7 11 1014.0 - 0.0
25/10:30pm 21.9 18.6 4.8 32 8.4 SE 11 15 6 8 1014.3 - 0.0
25/10:00pm 23.6 19.6 3.1 26 9.9 SSE 13 17 7 9 1014.4 - 0.0
25/09:30pm 22.6 22.7 16.5 68 3.7 S 11 17 6 9 1014.3 - 0.0
25/09:00pm 23.2 21.2 13.8 55 5.5 SSW 17 19 9 10 1014.4 1014.3 0.0
25/08:30pm 23.1 21.2 11.9 49 6.3 SSW 13 17 7 9 1014.3 - 0.0
25/08:00pm 23.6 20.8 9.9 42 7.5 SSW 15 20 8 11 1014.0 - 0.0
25/07:30pm 23.8 21.3 10.9 44 7.2 SSW 15 19 8 10 1013.6 - 0.0
25/07:00pm 24.2 21.0 8.5 36 8.4 SSW 15 22 8 12 1013.3 - 0.0
25/06:30pm 24.2 21.7 11.2 44 7.3 SW 15 19 8 10 1012.9 - 0.0
25/06:00pm 25.1 21.7 7.5 32 9.3 SW 15 19 8 10 1012.6 1012.5 0.0
25/05:30pm 26.1 22.4 6.3 28 10.3 SW 15 19 8 10 1012.3 - 0.0
25/05:00pm 28.4 24.1 0.9 17 13.2 SW 13 17 7 9 1012.0 - 0.0
25/04:30pm 29.6 24.2 -13.2 5 16.2 S 11 17 6 9 1011.8 - 0.0
25/04:00pm 29.8 24.1 -12.1 6 16.2 S 13 19 7 10 1011.6 - 0.0
25/03:30pm 29.7 23.2 -13.6 5 16.3 S 17 22 9 12 1011.6 - 0.0
25/03:00pm 29.9 24.0 -9.9 7 16.0 S 15 20 8 11 1011.6 1011.5 0.0
25/02:30pm 29.5 23.5 -6.5 9 15.3 S 17 24 9 13 1011.8 - 0.0
25/02:00pm 29.1 23.0 -7.3 9 15.2 S 17 24 9 13 1011.9 - 0.0
25/01:30pm 29.0 22.8 -4.6 11 14.7 S 19 28 10 15 1012.2 - 0.0
25/01:00pm 29.1 22.7 -4.9 10 14.8 SSE 20 30 11 16 1012.7 - 0.0
25/12:30pm 28.7 21.7 -6.9 9 14.9 SE 22 30 12 16 1013.1 - 0.0
25/12:00pm 28.3 21.9 1.0 17 13.1 SE 24 35 13 19 1013.5 1013.4 0.0
25/11:30am 27.8 20.5 -2.9 13 13.7 ESE 26 37 14 20 1014.0 - 0.0
25/11:00am 27.7 21.3 -1.8 14 13.4 ESE 22 33 12 18 1014.4 - 0.0
25/10:30am 27.1 18.4 -5.0 12 13.7 E 32 43 17 23 1014.9 - 0.0
25/10:04am 26.6 18.3 -5.4 12 13.5 ESE 30 48 16 26 1015.0 - 0.0
25/10:00am 26.6 18.4 -3.8 13 13.2 ESE 30 44 16 24 1015.1 - 0.0
25/09:30am 25.8 17.1 -5.1 12 13.0 ESE 32 44 17 24 1015.3 - 0.0
25/09:04am 25.0 17.1 -5.2 13 12.6 ESE 28 48 15 26 1015.5 - 0.0
25/09:00am 24.1 17.3 -1.7 18 11.4 ESE 24 32 13 17 1015.5 1015.4 0.0
25/08:30am 21.1 16.5 1.5 27 9.0 SE 15 20 8 11 1015.7 - 0.0
25/08:00am 19.5 14.8 -2.1 23 9.1 SE 13 17 7 9 1015.6 - 0.0
25/07:30am 18.6 12.6 -3.2 22 8.9 ESE 19 26 10 14 1015.4 - 0.0
25/07:00am 17.5 12.2 -0.5 29 7.7 ESE 17 24 9 13 1015.0 - 0.0
25/06:30am 15.5 10.7 -2.4 29 7.2 E 13 19 7 10 1014.7 - 0.0
25/06:00am 15.0 10.0 -1.0 33 6.6 E 15 19 8 10 1014.1 1014.0 0.0
25/05:30am 14.0 10.1 -1.2 35 6.2 ESE 9 13 5 7 1013.5 - 0.0
25/05:00am 13.7 9.9 -0.6 37 5.9 E 9 13 5 7 1013.1 - 0.0
25/04:30am 14.2 10.0 -1.2 34 6.3 E 11 17 6 9 1012.8 - 0.0
25/04:00am 14.2 10.0 -0.9 35 6.2 NE 11 15 6 8 1012.6 - 0.0
25/03:30am 18.1 13.4 3.3 37 6.9 ESE 17 24 9 13 1012.3 - 0.0
25/03:00am 18.9 13.8 3.0 34 7.4 ESE 19 26 10 14 1012.2 1012.1 0.0
25/02:30am 19.8 14.7 0.9 28 8.5 SE 17 22 9 12 1012.1 - 0.0
25/02:00am 15.9 12.8 3.8 44 5.6 ESE 9 15 5 8 1012.3 - 0.0
25/01:30am 16.6 13.0 0.4 33 7.0 ESE 9 11 5 6 1012.5 - 0.0
25/01:00am 17.0 13.5 3.6 41 6.2 NE 11 15 6 8 1012.5 - 0.0
25/12:30am 21.0 17.7 2.4 29 8.7 SSE 9 13 5 7 1012.6 - 0.0
25/12:00am 21.3 17.3 0.8 25 9.3 SE 11 20 6 11 1012.9 1012.8 0.0
 
Date/Time
WST
Temp
°C
App
Temp
°C
Dew
Point
°C
Rel
Hum
%
Delta-T
°C
Wind Press
QNH
hPa
Press
MSL
hPa
Rain since
9am
mm
Dir  Spd
km/h
Gust
km/h
Spd
kts
Gust
kts
24/11:30pm 21.7 17.3 0.5 24 9.6 SSE 13 24 7 13 1013.0 - 0.0
24/11:00pm 21.3 19.6 9.8 48 6.2 S 9 13 5 7 1013.1 - 0.0
24/10:30pm 20.9 21.2 15.9 73 3.0 S 9 13 5 7 1013.2 - 0.0
24/10:00pm 21.5 21.2 15.5 68 3.6 S 11 15 6 8 1013.1 - 0.0

Other Formats:

Comma delimited format used in spreadsheet applications
http://www.bom.gov.au/fwo/IDW60801/IDW60801.94203.axf

JavaScript Object Notation format (JSON) in row-major order
http://www.bom.gov.au/fwo/IDW60801/IDW60801.94203.json